sensor_id;sensor_type;location;lat;lon;timestamp;P1;durP1;ratioP1;P2;durP2;ratioP2
2992;SDS011;1506;48.932;9.478;2022-08-19T00:01:31;13.60;;;11.00;;
2992;SDS011;1506;48.932;9.478;2022-08-19T00:04:04;12.87;;;11.43;;
2992;SDS011;1506;48.932;9.478;2022-08-19T00:06:34;17.33;;;10.63;;
2992;SDS011;1506;48.932;9.478;2022-08-19T00:09:03;11.47;;;10.57;;
2992;SDS011;1506;48.932;9.478;2022-08-19T00:11:31;11.43;;;10.53;;
2992;SDS011;1506;48.932;9.478;2022-08-19T00:14:02;11.03;;;10.13;;
2992;SDS011;1506;48.932;9.478;2022-08-19T00:16:31;15.97;;;10.83;;
2992;SDS011;1506;48.932;9.478;2022-08-19T00:18:59;11.73;;;10.53;;
2992;SDS011;1506;48.932;9.478;2022-08-19T00:21:26;12.03;;;10.90;;
2992;SDS011;1506;48.932;9.478;2022-08-19T00:23:54;15.03;;;12.13;;
2992;SDS011;1506;48.932;9.478;2022-08-19T00:26:26;11.10;;;10.10;;
2992;SDS011;1506;48.932;9.478;2022-08-19T00:28:54;13.50;;;11.83;;
2992;SDS011;1506;48.932;9.478;2022-08-19T00:31:22;13.67;;;12.27;;
2992;SDS011;1506;48.932;9.478;2022-08-19T00:33:51;11.50;;;10.43;;
2992;SDS011;1506;48.932;9.478;2022-08-19T00:36:18;12.67;;;11.37;;
2992;SDS011;1506;48.932;9.478;2022-08-19T00:38:46;13.60;;;12.30;;
2992;SDS011;1506;48.932;9.478;2022-08-19T00:41:15;12.83;;;11.50;;
2992;SDS011;1506;48.932;9.478;2022-08-19T00:46:53;17.47;;;11.97;;
2992;SDS011;1506;48.932;9.478;2022-08-19T00:49:26;12.87;;;11.47;;
2992;SDS011;1506;48.932;9.478;2022-08-19T00:51:57;11.93;;;10.83;;
2992;SDS011;1506;48.932;9.478;2022-08-19T00:54:28;12.70;;;11.50;;
2992;SDS011;1506;48.932;9.478;2022-08-19T00:56:58;13.37;;;10.77;;
2992;SDS011;1506;48.932;9.478;2022-08-19T00:59:25;12.77;;;11.63;;
2992;SDS011;1506;48.932;9.478;2022-08-19T01:02:15;12.37;;;11.23;;
2992;SDS011;1506;48.932;9.478;2022-08-19T01:04:43;13.73;;;12.33;;
2992;SDS011;1506;48.932;9.478;2022-08-19T01:07:10;12.10;;;10.90;;
2992;SDS011;1506;48.932;9.478;2022-08-19T01:09:42;13.50;;;12.20;;
2992;SDS011;1506;48.932;9.478;2022-08-19T01:12:10;13.53;;;11.00;;
2992;SDS011;1506;48.932;9.478;2022-08-19T01:14:38;19.40;;;10.93;;
2992;SDS011;1506;48.932;9.478;2022-08-19T01:17:09;12.97;;;11.67;;
2992;SDS011;1506;48.932;9.478;2022-08-19T01:19:39;11.73;;;10.73;;
2992;SDS011;1506;48.932;9.478;2022-08-19T01:24:59;11.43;;;10.27;;
2992;SDS011;1506;48.932;9.478;2022-08-19T01:27:27;13.07;;;11.63;;
2992;SDS011;1506;48.932;9.478;2022-08-19T01:30:10;16.83;;;11.73;;
2992;SDS011;1506;48.932;9.478;2022-08-19T01:32:44;11.70;;;10.73;;
2992;SDS011;1506;48.932;9.478;2022-08-19T01:35:12;14.13;;;12.07;;
2992;SDS011;1506;48.932;9.478;2022-08-19T01:40:15;14.63;;;12.60;;
2992;SDS011;1506;48.932;9.478;2022-08-19T01:42:43;13.90;;;11.57;;
2992;SDS011;1506;48.932;9.478;2022-08-19T01:45:10;13.60;;;12.17;;
2992;SDS011;1506;48.932;9.478;2022-08-19T01:47:38;12.00;;;10.90;;
2992;SDS011;1506;48.932;9.478;2022-08-19T01:50:06;14.43;;;12.77;;
2992;SDS011;1506;48.932;9.478;2022-08-19T01:52:36;15.17;;;12.67;;
2992;SDS011;1506;48.932;9.478;2022-08-19T01:55:04;13.37;;;12.00;;
2992;SDS011;1506;48.932;9.478;2022-08-19T01:57:34;13.03;;;10.90;;
2992;SDS011;1506;48.932;9.478;2022-08-19T02:00:03;14.40;;;12.90;;
2992;SDS011;1506;48.932;9.478;2022-08-19T02:02:36;16.77;;;13.40;;
2992;SDS011;1506;48.932;9.478;2022-08-19T02:05:04;14.47;;;12.50;;
2992;SDS011;1506;48.932;9.478;2022-08-19T02:07:36;15.23;;;12.37;;
2992;SDS011;1506;48.932;9.478;2022-08-19T02:10:08;12.53;;;11.30;;
2992;SDS011;1506;48.932;9.478;2022-08-19T02:12:42;13.03;;;11.67;;
2992;SDS011;1506;48.932;9.478;2022-08-19T02:15:10;17.77;;;12.30;;
2992;SDS011;1506;48.932;9.478;2022-08-19T02:17:38;14.03;;;12.30;;
2992;SDS011;1506;48.932;9.478;2022-08-19T02:20:05;13.27;;;11.50;;
2992;SDS011;1506;48.932;9.478;2022-08-19T02:22:34;13.60;;;12.20;;
2992;SDS011;1506;48.932;9.478;2022-08-19T02:25:02;16.10;;;12.93;;
2992;SDS011;1506;48.932;9.478;2022-08-19T02:27:31;19.13;;;13.63;;
2992;SDS011;1506;48.932;9.478;2022-08-19T02:29:59;16.00;;;13.03;;
2992;SDS011;1506;48.932;9.478;2022-08-19T02:32:27;18.03;;;13.43;;
2992;SDS011;1506;48.932;9.478;2022-08-19T02:34:56;16.93;;;12.73;;
2992;SDS011;1506;48.932;9.478;2022-08-19T02:37:24;13.93;;;12.53;;
2992;SDS011;1506;48.932;9.478;2022-08-19T02:40:09;13.40;;;12.00;;
2992;SDS011;1506;48.932;9.478;2022-08-19T02:42:38;15.77;;;12.80;;
2992;SDS011;1506;48.932;9.478;2022-08-19T02:45:07;13.37;;;12.07;;
2992;SDS011;1506;48.932;9.478;2022-08-19T02:47:34;15.20;;;12.00;;
2992;SDS011;1506;48.932;9.478;2022-08-19T02:50:02;15.80;;;13.07;;
2992;SDS011;1506;48.932;9.478;2022-08-19T02:52:32;13.40;;;11.00;;
2992;SDS011;1506;48.932;9.478;2022-08-19T02:55:00;16.53;;;12.97;;
2992;SDS011;1506;48.932;9.478;2022-08-19T02:57:27;19.17;;;12.37;;
2992;SDS011;1506;48.932;9.478;2022-08-19T02:59:57;18.30;;;13.07;;
2992;SDS011;1506;48.932;9.478;2022-08-19T03:02:25;15.97;;;12.70;;
2992;SDS011;1506;48.932;9.478;2022-08-19T03:04:53;17.57;;;13.63;;
2992;SDS011;1506;48.932;9.478;2022-08-19T03:07:20;17.97;;;13.90;;
2992;SDS011;1506;48.932;9.478;2022-08-19T03:09:48;14.50;;;12.73;;
2992;SDS011;1506;48.932;9.478;2022-08-19T03:12:15;20.90;;;13.60;;
2992;SDS011;1506;48.932;9.478;2022-08-19T03:14:42;19.27;;;15.27;;
2992;SDS011;1506;48.932;9.478;2022-08-19T03:17:11;14.37;;;12.10;;
2992;SDS011;1506;48.932;9.478;2022-08-19T03:19:39;106.80;;;40.83;;
2992;SDS011;1506;48.932;9.478;2022-08-19T03:22:07;31.13;;;17.93;;
2992;SDS011;1506;48.932;9.478;2022-08-19T03:24:34;24.80;;;14.10;;
2992;SDS011;1506;48.932;9.478;2022-08-19T03:27:03;20.10;;;14.03;;
2992;SDS011;1506;48.932;9.478;2022-08-19T03:29:31;14.20;;;12.80;;
2992;SDS011;1506;48.932;9.478;2022-08-19T03:32:08;18.40;;;14.50;;
2992;SDS011;1506;48.932;9.478;2022-08-19T03:34:56;16.67;;;13.40;;
2992;SDS011;1506;48.932;9.478;2022-08-19T03:37:23;21.03;;;15.03;;
2992;SDS011;1506;48.932;9.478;2022-08-19T03:39:52;15.60;;;13.23;;
2992;SDS011;1506;48.932;9.478;2022-08-19T03:42:19;15.83;;;14.13;;
2992;SDS011;1506;48.932;9.478;2022-08-19T03:44:58;17.43;;;14.03;;
2992;SDS011;1506;48.932;9.478;2022-08-19T03:47:26;17.60;;;13.60;;
2992;SDS011;1506;48.932;9.478;2022-08-19T03:49:53;18.30;;;15.27;;
2992;SDS011;1506;48.932;9.478;2022-08-19T03:52:21;19.17;;;14.40;;
2992;SDS011;1506;48.932;9.478;2022-08-19T03:54:48;16.93;;;13.67;;
2992;SDS011;1506;48.932;9.478;2022-08-19T03:57:15;20.27;;;14.50;;
2992;SDS011;1506;48.932;9.478;2022-08-19T03:59:43;17.30;;;14.20;;
2992;SDS011;1506;48.932;9.478;2022-08-19T04:02:11;21.03;;;16.00;;
2992;SDS011;1506;48.932;9.478;2022-08-19T04:04:40;17.97;;;14.53;;
2992;SDS011;1506;48.932;9.478;2022-08-19T04:07:10;19.50;;;14.77;;
2992;SDS011;1506;48.932;9.478;2022-08-19T04:09:41;17.13;;;14.03;;
2992;SDS011;1506;48.932;9.478;2022-08-19T04:12:08;20.70;;;14.17;;
2992;SDS011;1506;48.932;9.478;2022-08-19T04:14:36;19.90;;;14.37;;
2992;SDS011;1506;48.932;9.478;2022-08-19T04:17:03;17.50;;;13.30;;
2992;SDS011;1506;48.932;9.478;2022-08-19T04:19:32;22.90;;;15.50;;
2992;SDS011;1506;48.932;9.478;2022-08-19T04:22:00;21.73;;;13.93;;
2992;SDS011;1506;48.932;9.478;2022-08-19T04:24:28;21.00;;;15.23;;
2992;SDS011;1506;48.932;9.478;2022-08-19T04:26:56;25.13;;;16.83;;
2992;SDS011;1506;48.932;9.478;2022-08-19T04:29:25;26.50;;;17.20;;
2992;SDS011;1506;48.932;9.478;2022-08-19T04:31:54;20.33;;;14.33;;
2992;SDS011;1506;48.932;9.478;2022-08-19T04:34:23;22.77;;;15.67;;
2992;SDS011;1506;48.932;9.478;2022-08-19T04:36:53;26.13;;;16.23;;
2992;SDS011;1506;48.932;9.478;2022-08-19T04:39:23;19.23;;;13.83;;
2992;SDS011;1506;48.932;9.478;2022-08-19T04:42:15;21.00;;;14.73;;
2992;SDS011;1506;48.932;9.478;2022-08-19T04:45:02;17.90;;;14.87;;
2992;SDS011;1506;48.932;9.478;2022-08-19T04:47:38;19.83;;;14.10;;
2992;SDS011;1506;48.932;9.478;2022-08-19T04:50:23;16.43;;;13.13;;
2992;SDS011;1506;48.932;9.478;2022-08-19T04:52:53;18.60;;;13.73;;
2992;SDS011;1506;48.932;9.478;2022-08-19T04:55:22;21.77;;;15.03;;
2992;SDS011;1506;48.932;9.478;2022-08-19T04:57:52;23.00;;;14.53;;
2992;SDS011;1506;48.932;9.478;2022-08-19T05:00:20;19.80;;;14.37;;
2992;SDS011;1506;48.932;9.478;2022-08-19T05:02:47;19.77;;;15.20;;
2992;SDS011;1506;48.932;9.478;2022-08-19T05:05:15;23.97;;;15.57;;
2992;SDS011;1506;48.932;9.478;2022-08-19T05:07:43;34.60;;;16.20;;
2992;SDS011;1506;48.932;9.478;2022-08-19T05:10:10;19.43;;;14.50;;
2992;SDS011;1506;48.932;9.478;2022-08-19T05:12:38;27.00;;;14.33;;
2992;SDS011;1506;48.932;9.478;2022-08-19T05:15:06;19.07;;;14.30;;
2992;SDS011;1506;48.932;9.478;2022-08-19T05:17:37;21.13;;;15.23;;
2992;SDS011;1506;48.932;9.478;2022-08-19T05:20:24;21.60;;;13.97;;
2992;SDS011;1506;48.932;9.478;2022-08-19T05:23:11;24.20;;;15.60;;
2992;SDS011;1506;48.932;9.478;2022-08-19T05:25:48;23.67;;;15.27;;
2992;SDS011;1506;48.932;9.478;2022-08-19T05:28:17;19.37;;;15.23;;
2992;SDS011;1506;48.932;9.478;2022-08-19T05:30:45;19.70;;;14.67;;
2992;SDS011;1506;48.932;9.478;2022-08-19T05:33:13;20.93;;;12.90;;
2992;SDS011;1506;48.932;9.478;2022-08-19T05:35:40;26.33;;;17.57;;
2992;SDS011;1506;48.932;9.478;2022-08-19T05:38:08;24.17;;;15.97;;
2992;SDS011;1506;48.932;9.478;2022-08-19T05:40:35;24.63;;;15.00;;
2992;SDS011;1506;48.932;9.478;2022-08-19T05:43:04;20.00;;;14.70;;
2992;SDS011;1506;48.932;9.478;2022-08-19T05:45:37;24.90;;;16.80;;
2992;SDS011;1506;48.932;9.478;2022-08-19T05:48:06;22.90;;;15.90;;
2992;SDS011;1506;48.932;9.478;2022-08-19T05:50:38;26.90;;;17.73;;
2992;SDS011;1506;48.932;9.478;2022-08-19T05:53:06;23.90;;;15.90;;
2992;SDS011;1506;48.932;9.478;2022-08-19T05:55:35;21.07;;;15.10;;
2992;SDS011;1506;48.932;9.478;2022-08-19T05:58:04;23.17;;;14.97;;
2992;SDS011;1506;48.932;9.478;2022-08-19T06:00:34;31.23;;;17.13;;
2992;SDS011;1506;48.932;9.478;2022-08-19T06:03:02;23.63;;;16.80;;
2992;SDS011;1506;48.932;9.478;2022-08-19T06:05:38;20.77;;;14.87;;
2992;SDS011;1506;48.932;9.478;2022-08-19T06:08:17;25.23;;;15.60;;
2992;SDS011;1506;48.932;9.478;2022-08-19T06:10:45;25.03;;;15.20;;
2992;SDS011;1506;48.932;9.478;2022-08-19T06:13:12;33.00;;;17.50;;
2992;SDS011;1506;48.932;9.478;2022-08-19T06:15:40;22.80;;;16.10;;
2992;SDS011;1506;48.932;9.478;2022-08-19T06:18:10;26.13;;;15.33;;
2992;SDS011;1506;48.932;9.478;2022-08-19T06:20:37;23.50;;;15.67;;
2992;SDS011;1506;48.932;9.478;2022-08-19T06:23:21;22.50;;;15.40;;
2992;SDS011;1506;48.932;9.478;2022-08-19T06:25:49;29.50;;;17.37;;
2992;SDS011;1506;48.932;9.478;2022-08-19T06:28:17;24.20;;;16.10;;
2992;SDS011;1506;48.932;9.478;2022-08-19T06:30:44;22.57;;;15.63;;
2992;SDS011;1506;48.932;9.478;2022-08-19T06:33:12;19.00;;;13.67;;
2992;SDS011;1506;48.932;9.478;2022-08-19T06:35:40;26.60;;;16.10;;
2992;SDS011;1506;48.932;9.478;2022-08-19T06:38:08;21.80;;;15.50;;
2992;SDS011;1506;48.932;9.478;2022-08-19T06:40:35;29.60;;;16.90;;
2992;SDS011;1506;48.932;9.478;2022-08-19T06:43:04;24.87;;;17.33;;
2992;SDS011;1506;48.932;9.478;2022-08-19T06:45:36;26.03;;;16.40;;
2992;SDS011;1506;48.932;9.478;2022-08-19T06:48:05;37.80;;;16.47;;
2992;SDS011;1506;48.932;9.478;2022-08-19T06:50:33;24.43;;;15.73;;
2992;SDS011;1506;48.932;9.478;2022-08-19T06:53:04;23.30;;;16.90;;
2992;SDS011;1506;48.932;9.478;2022-08-19T06:55:32;28.03;;;17.17;;
2992;SDS011;1506;48.932;9.478;2022-08-19T06:58:02;21.87;;;15.70;;
2992;SDS011;1506;48.932;9.478;2022-08-19T07:00:30;29.03;;;17.27;;
2992;SDS011;1506;48.932;9.478;2022-08-19T07:02:58;26.07;;;17.30;;
2992;SDS011;1506;48.932;9.478;2022-08-19T07:05:37;23.60;;;14.70;;
2992;SDS011;1506;48.932;9.478;2022-08-19T07:08:11;26.97;;;17.20;;
2992;SDS011;1506;48.932;9.478;2022-08-19T07:10:42;28.17;;;18.10;;
2992;SDS011;1506;48.932;9.478;2022-08-19T07:13:11;23.33;;;16.30;;
2992;SDS011;1506;48.932;9.478;2022-08-19T07:15:38;27.93;;;16.53;;
2992;SDS011;1506;48.932;9.478;2022-08-19T07:18:06;25.33;;;16.40;;
2992;SDS011;1506;48.932;9.478;2022-08-19T07:20:37;28.90;;;17.10;;
2992;SDS011;1506;48.932;9.478;2022-08-19T07:23:07;23.80;;;15.87;;
2992;SDS011;1506;48.932;9.478;2022-08-19T07:25:41;23.13;;;15.57;;
2992;SDS011;1506;48.932;9.478;2022-08-19T07:28:09;25.43;;;16.30;;
2992;SDS011;1506;48.932;9.478;2022-08-19T07:30:49;23.57;;;16.37;;
2992;SDS011;1506;48.932;9.478;2022-08-19T07:33:18;24.63;;;17.30;;
2992;SDS011;1506;48.932;9.478;2022-08-19T07:35:45;25.20;;;16.43;;
2992;SDS011;1506;48.932;9.478;2022-08-19T07:38:13;27.17;;;16.93;;
2992;SDS011;1506;48.932;9.478;2022-08-19T07:40:41;25.30;;;17.70;;
2992;SDS011;1506;48.932;9.478;2022-08-19T07:43:11;29.07;;;16.87;;
2992;SDS011;1506;48.932;9.478;2022-08-19T07:45:43;27.03;;;16.50;;
2992;SDS011;1506;48.932;9.478;2022-08-19T07:48:10;22.03;;;15.83;;
2992;SDS011;1506;48.932;9.478;2022-08-19T07:50:38;22.43;;;17.07;;
2992;SDS011;1506;48.932;9.478;2022-08-19T07:53:06;25.13;;;15.63;;
2992;SDS011;1506;48.932;9.478;2022-08-19T07:55:33;25.13;;;17.70;;
2992;SDS011;1506;48.932;9.478;2022-08-19T07:58:08;24.30;;;17.97;;
2992;SDS011;1506;48.932;9.478;2022-08-19T08:00:40;22.10;;;15.70;;
2992;SDS011;1506;48.932;9.478;2022-08-19T08:03:08;27.30;;;17.03;;
2992;SDS011;1506;48.932;9.478;2022-08-19T08:05:36;27.67;;;17.17;;
2992;SDS011;1506;48.932;9.478;2022-08-19T08:08:22;29.73;;;16.90;;
2992;SDS011;1506;48.932;9.478;2022-08-19T08:11:14;22.03;;;16.40;;
2992;SDS011;1506;48.932;9.478;2022-08-19T08:13:45;23.83;;;15.97;;
2992;SDS011;1506;48.932;9.478;2022-08-19T08:16:27;26.00;;;16.33;;
2992;SDS011;1506;48.932;9.478;2022-08-19T08:18:56;25.00;;;16.77;;
2992;SDS011;1506;48.932;9.478;2022-08-19T08:21:24;22.47;;;16.07;;
2992;SDS011;1506;48.932;9.478;2022-08-19T08:23:51;19.70;;;16.40;;
2992;SDS011;1506;48.932;9.478;2022-08-19T08:26:22;24.50;;;16.07;;
2992;SDS011;1506;48.932;9.478;2022-08-19T08:28:49;22.13;;;15.93;;
2992;SDS011;1506;48.932;9.478;2022-08-19T08:31:17;22.03;;;16.60;;
2992;SDS011;1506;48.932;9.478;2022-08-19T08:33:45;20.70;;;14.53;;
2992;SDS011;1506;48.932;9.478;2022-08-19T08:36:13;21.53;;;15.83;;
2992;SDS011;1506;48.932;9.478;2022-08-19T08:38:44;24.07;;;16.53;;
2992;SDS011;1506;48.932;9.478;2022-08-19T08:41:56;20.53;;;14.97;;
2992;SDS011;1506;48.932;9.478;2022-08-19T08:44:03;23.80;;;16.20;;
2992;SDS011;1506;48.932;9.478;2022-08-19T08:49:11;20.17;;;14.23;;
2992;SDS011;1506;48.932;9.478;2022-08-19T08:52:09;22.93;;;15.27;;
2992;SDS011;1506;48.932;9.478;2022-08-19T08:54:59;23.17;;;14.23;;
2992;SDS011;1506;48.932;9.478;2022-08-19T08:57:39;16.47;;;13.37;;
2992;SDS011;1506;48.932;9.478;2022-08-19T09:00:10;14.90;;;12.50;;
2992;SDS011;1506;48.932;9.478;2022-08-19T09:02:44;20.77;;;14.93;;
2992;SDS011;1506;48.932;9.478;2022-08-19T09:05:16;21.73;;;15.87;;
2992;SDS011;1506;48.932;9.478;2022-08-19T09:07:59;20.20;;;13.47;;
2992;SDS011;1506;48.932;9.478;2022-08-19T09:10:52;20.70;;;14.93;;
2992;SDS011;1506;48.932;9.478;2022-08-19T09:16:08;21.53;;;13.73;;
2992;SDS011;1506;48.932;9.478;2022-08-19T09:18:57;22.60;;;14.17;;
2992;SDS011;1506;48.932;9.478;2022-08-19T09:21:28;20.30;;;13.70;;
2992;SDS011;1506;48.932;9.478;2022-08-19T09:24:00;19.23;;;13.80;;
2992;SDS011;1506;48.932;9.478;2022-08-19T09:26:28;22.37;;;15.93;;
2992;SDS011;1506;48.932;9.478;2022-08-19T09:29:17;18.37;;;14.23;;
2992;SDS011;1506;48.932;9.478;2022-08-19T09:31:48;19.07;;;13.20;;
2992;SDS011;1506;48.932;9.478;2022-08-19T09:34:16;22.30;;;15.90;;
2992;SDS011;1506;48.932;9.478;2022-08-19T09:36:48;21.13;;;14.70;;
2992;SDS011;1506;48.932;9.478;2022-08-19T09:39:20;17.90;;;15.30;;
2992;SDS011;1506;48.932;9.478;2022-08-19T09:41:47;19.27;;;13.07;;
2992;SDS011;1506;48.932;9.478;2022-08-19T09:44:16;18.07;;;13.07;;
2992;SDS011;1506;48.932;9.478;2022-08-19T09:46:47;20.23;;;13.77;;
2992;SDS011;1506;48.932;9.478;2022-08-19T09:49:15;21.23;;;13.90;;
2992;SDS011;1506;48.932;9.478;2022-08-19T09:51:44;17.97;;;14.07;;
2992;SDS011;1506;48.932;9.478;2022-08-19T09:54:17;21.50;;;14.43;;
2992;SDS011;1506;48.932;9.478;2022-08-19T09:56:50;18.17;;;13.90;;
2992;SDS011;1506;48.932;9.478;2022-08-19T09:59:18;17.60;;;12.83;;
2992;SDS011;1506;48.932;9.478;2022-08-19T10:01:46;21.33;;;14.20;;
2992;SDS011;1506;48.932;9.478;2022-08-19T10:04:14;21.60;;;14.17;;
2992;SDS011;1506;48.932;9.478;2022-08-19T10:06:47;16.03;;;12.50;;
2992;SDS011;1506;48.932;9.478;2022-08-19T10:09:19;20.90;;;14.77;;
2992;SDS011;1506;48.932;9.478;2022-08-19T10:12:00;20.10;;;15.43;;
2992;SDS011;1506;48.932;9.478;2022-08-19T10:14:29;25.60;;;16.40;;
2992;SDS011;1506;48.932;9.478;2022-08-19T10:16:57;26.03;;;15.57;;
2992;SDS011;1506;48.932;9.478;2022-08-19T10:19:30;19.10;;;14.30;;
2992;SDS011;1506;48.932;9.478;2022-08-19T10:22:02;18.73;;;15.60;;
2992;SDS011;1506;48.932;9.478;2022-08-19T10:24:35;24.27;;;17.17;;
2992;SDS011;1506;48.932;9.478;2022-08-19T10:27:02;26.50;;;17.87;;
2992;SDS011;1506;48.932;9.478;2022-08-19T10:29:34;23.43;;;15.13;;
2992;SDS011;1506;48.932;9.478;2022-08-19T10:32:11;23.77;;;17.33;;
2992;SDS011;1506;48.932;9.478;2022-08-19T10:34:39;29.20;;;17.10;;
2992;SDS011;1506;48.932;9.478;2022-08-19T10:37:14;24.03;;;16.80;;
2992;SDS011;1506;48.932;9.478;2022-08-19T10:39:56;22.10;;;16.30;;
2992;SDS011;1506;48.932;9.478;2022-08-19T10:42:24;34.50;;;18.23;;
2992;SDS011;1506;48.932;9.478;2022-08-19T10:44:51;24.13;;;17.00;;
2992;SDS011;1506;48.932;9.478;2022-08-19T10:47:19;29.17;;;17.07;;
2992;SDS011;1506;48.932;9.478;2022-08-19T10:49:56;30.00;;;18.30;;
2992;SDS011;1506;48.932;9.478;2022-08-19T10:52:43;26.53;;;18.07;;
2992;SDS011;1506;48.932;9.478;2022-08-19T10:55:17;34.40;;;20.33;;
2992;SDS011;1506;48.932;9.478;2022-08-19T10:58:09;33.97;;;19.40;;
2992;SDS011;1506;48.932;9.478;2022-08-19T11:00:42;38.70;;;20.20;;
2992;SDS011;1506;48.932;9.478;2022-08-19T11:03:10;31.20;;;20.83;;
2992;SDS011;1506;48.932;9.478;2022-08-19T11:05:38;33.13;;;20.90;;
2992;SDS011;1506;48.932;9.478;2022-08-19T11:08:06;38.93;;;23.97;;
2992;SDS011;1506;48.932;9.478;2022-08-19T11:10:52;33.43;;;19.83;;
2992;SDS011;1506;48.932;9.478;2022-08-19T11:13:25;29.83;;;18.40;;
2992;SDS011;1506;48.932;9.478;2022-08-19T11:16:09;28.03;;;19.57;;
2992;SDS011;1506;48.932;9.478;2022-08-19T11:18:42;32.07;;;20.83;;
2992;SDS011;1506;48.932;9.478;2022-08-19T11:23:46;33.70;;;20.10;;
2992;SDS011;1506;48.932;9.478;2022-08-19T11:26:15;33.47;;;19.87;;
2992;SDS011;1506;48.932;9.478;2022-08-19T11:28:43;28.57;;;17.83;;
2992;SDS011;1506;48.932;9.478;2022-08-19T11:31:12;29.87;;;18.80;;
2992;SDS011;1506;48.932;9.478;2022-08-19T11:33:41;29.83;;;18.57;;
2992;SDS011;1506;48.932;9.478;2022-08-19T11:36:13;29.27;;;18.50;;
2992;SDS011;1506;48.932;9.478;2022-08-19T11:38:41;30.57;;;19.13;;
2992;SDS011;1506;48.932;9.478;2022-08-19T11:41:09;37.30;;;20.87;;
2992;SDS011;1506;48.932;9.478;2022-08-19T11:43:37;37.50;;;19.83;;
2992;SDS011;1506;48.932;9.478;2022-08-19T11:46:10;29.97;;;20.00;;
2992;SDS011;1506;48.932;9.478;2022-08-19T11:48:39;31.83;;;21.23;;
2992;SDS011;1506;48.932;9.478;2022-08-19T11:51:08;35.67;;;19.47;;
2992;SDS011;1506;48.932;9.478;2022-08-19T11:53:37;29.60;;;18.80;;
2992;SDS011;1506;48.932;9.478;2022-08-19T11:56:06;42.87;;;20.90;;
2992;SDS011;1506;48.932;9.478;2022-08-19T11:58:34;34.63;;;19.20;;
2992;SDS011;1506;48.932;9.478;2022-08-19T12:01:05;34.17;;;18.33;;
2992;SDS011;1506;48.932;9.478;2022-08-19T12:03:34;31.20;;;18.67;;
2992;SDS011;1506;48.932;9.478;2022-08-19T12:06:08;34.53;;;19.87;;
2992;SDS011;1506;48.932;9.478;2022-08-19T12:08:39;37.33;;;21.13;;
2992;SDS011;1506;48.932;9.478;2022-08-19T12:11:07;28.30;;;17.97;;
2992;SDS011;1506;48.932;9.478;2022-08-19T12:13:36;33.93;;;20.87;;
2992;SDS011;1506;48.932;9.478;2022-08-19T12:16:08;29.40;;;18.63;;
2992;SDS011;1506;48.932;9.478;2022-08-19T12:18:38;31.43;;;19.53;;
2992;SDS011;1506;48.932;9.478;2022-08-19T12:21:13;28.00;;;19.20;;
2992;SDS011;1506;48.932;9.478;2022-08-19T12:23:41;28.57;;;19.43;;
2992;SDS011;1506;48.932;9.478;2022-08-19T12:26:11;24.20;;;17.97;;
2992;SDS011;1506;48.932;9.478;2022-08-19T12:28:38;25.60;;;17.70;;
2992;SDS011;1506;48.932;9.478;2022-08-19T12:31:06;25.40;;;17.63;;
2992;SDS011;1506;48.932;9.478;2022-08-19T12:33:33;28.17;;;17.40;;
2992;SDS011;1506;48.932;9.478;2022-08-19T12:36:02;23.90;;;17.73;;
2992;SDS011;1506;48.932;9.478;2022-08-19T12:38:31;22.63;;;16.87;;
2992;SDS011;1506;48.932;9.478;2022-08-19T12:41:00;25.80;;;16.00;;
2992;SDS011;1506;48.932;9.478;2022-08-19T12:43:32;28.07;;;17.97;;
2992;SDS011;1506;48.932;9.478;2022-08-19T12:46:01;23.63;;;17.10;;
2992;SDS011;1506;48.932;9.478;2022-08-19T12:48:30;25.23;;;16.80;;
2992;SDS011;1506;48.932;9.478;2022-08-19T12:51:00;26.33;;;16.90;;
2992;SDS011;1506;48.932;9.478;2022-08-19T12:53:35;27.80;;;17.10;;
2992;SDS011;1506;48.932;9.478;2022-08-19T12:56:04;27.33;;;18.10;;
2992;SDS011;1506;48.932;9.478;2022-08-19T12:58:38;31.07;;;15.27;;
2992;SDS011;1506;48.932;9.478;2022-08-19T13:01:14;30.10;;;17.80;;
2992;SDS011;1506;48.932;9.478;2022-08-19T13:03:47;21.47;;;15.50;;
2992;SDS011;1506;48.932;9.478;2022-08-19T13:06:16;25.60;;;15.70;;
2992;SDS011;1506;48.932;9.478;2022-08-19T13:08:45;26.90;;;16.50;;
2992;SDS011;1506;48.932;9.478;2022-08-19T13:11:16;19.00;;;16.60;;
2992;SDS011;1506;48.932;9.478;2022-08-19T13:13:46;21.97;;;16.03;;
2992;SDS011;1506;48.932;9.478;2022-08-19T13:16:14;25.20;;;16.67;;
2992;SDS011;1506;48.932;9.478;2022-08-19T13:18:42;22.97;;;15.70;;
2992;SDS011;1506;48.932;9.478;2022-08-19T13:21:13;22.57;;;16.00;;
2992;SDS011;1506;48.932;9.478;2022-08-19T13:23:41;18.60;;;15.00;;
2992;SDS011;1506;48.932;9.478;2022-08-19T13:26:09;24.10;;;16.93;;
2992;SDS011;1506;48.932;9.478;2022-08-19T13:28:38;21.90;;;17.70;;
2992;SDS011;1506;48.932;9.478;2022-08-19T13:31:26;26.87;;;16.30;;
2992;SDS011;1506;48.932;9.478;2022-08-19T13:34:14;32.80;;;17.60;;
2992;SDS011;1506;48.932;9.478;2022-08-19T13:36:43;25.23;;;17.73;;
2992;SDS011;1506;48.932;9.478;2022-08-19T13:39:10;27.77;;;18.40;;
2992;SDS011;1506;48.932;9.478;2022-08-19T13:41:42;26.23;;;18.07;;
2992;SDS011;1506;48.932;9.478;2022-08-19T13:44:14;28.40;;;19.20;;
2992;SDS011;1506;48.932;9.478;2022-08-19T13:46:44;25.67;;;18.10;;
2992;SDS011;1506;48.932;9.478;2022-08-19T13:49:13;31.77;;;18.37;;
2992;SDS011;1506;48.932;9.478;2022-08-19T13:51:41;29.03;;;17.97;;
2992;SDS011;1506;48.932;9.478;2022-08-19T13:54:10;24.67;;;18.07;;
2992;SDS011;1506;48.932;9.478;2022-08-19T13:56:41;29.27;;;18.60;;
2992;SDS011;1506;48.932;9.478;2022-08-19T13:59:10;31.73;;;15.60;;
2992;SDS011;1506;48.932;9.478;2022-08-19T14:01:38;20.33;;;16.30;;
2992;SDS011;1506;48.932;9.478;2022-08-19T14:04:06;17.00;;;13.97;;
2992;SDS011;1506;48.932;9.478;2022-08-19T14:06:34;26.90;;;16.00;;
2992;SDS011;1506;48.932;9.478;2022-08-19T14:09:02;20.83;;;14.70;;
2992;SDS011;1506;48.932;9.478;2022-08-19T14:11:30;20.67;;;15.00;;
2992;SDS011;1506;48.932;9.478;2022-08-19T14:13:58;21.83;;;14.80;;
2992;SDS011;1506;48.932;9.478;2022-08-19T14:16:25;13.20;;;11.87;;
2992;SDS011;1506;48.932;9.478;2022-08-19T14:18:53;17.80;;;14.80;;
2992;SDS011;1506;48.932;9.478;2022-08-19T14:21:21;19.63;;;14.00;;
2992;SDS011;1506;48.932;9.478;2022-08-19T14:23:50;17.27;;;15.10;;
2992;SDS011;1506;48.932;9.478;2022-08-19T14:26:19;20.33;;;16.03;;
2992;SDS011;1506;48.932;9.478;2022-08-19T14:28:47;16.30;;;14.60;;
2992;SDS011;1506;48.932;9.478;2022-08-19T14:31:16;23.57;;;15.70;;
2992;SDS011;1506;48.932;9.478;2022-08-19T14:33:46;22.77;;;16.60;;
2992;SDS011;1506;48.932;9.478;2022-08-19T14:36:14;22.13;;;15.67;;
2992;SDS011;1506;48.932;9.478;2022-08-19T14:38:41;26.17;;;16.80;;
2992;SDS011;1506;48.932;9.478;2022-08-19T14:41:11;21.90;;;16.07;;
2992;SDS011;1506;48.932;9.478;2022-08-19T14:43:46;25.27;;;17.07;;
2992;SDS011;1506;48.932;9.478;2022-08-19T14:46:16;30.87;;;18.40;;
2992;SDS011;1506;48.932;9.478;2022-08-19T14:48:50;30.27;;;17.93;;
2992;SDS011;1506;48.932;9.478;2022-08-19T14:51:18;23.20;;;14.77;;
2992;SDS011;1506;48.932;9.478;2022-08-19T14:53:48;23.53;;;15.80;;
2992;SDS011;1506;48.932;9.478;2022-08-19T14:56:17;21.33;;;16.30;;
2992;SDS011;1506;48.932;9.478;2022-08-19T14:58:47;14.57;;;13.10;;
2992;SDS011;1506;48.932;9.478;2022-08-19T15:01:19;25.53;;;14.50;;
2992;SDS011;1506;48.932;9.478;2022-08-19T15:03:48;23.97;;;15.90;;
2992;SDS011;1506;48.932;9.478;2022-08-19T15:06:19;20.57;;;15.47;;
2992;SDS011;1506;48.932;9.478;2022-08-19T15:08:47;18.90;;;14.30;;
2992;SDS011;1506;48.932;9.478;2022-08-19T15:11:17;26.97;;;15.17;;
2992;SDS011;1506;48.932;9.478;2022-08-19T15:13:47;22.67;;;16.30;;
2992;SDS011;1506;48.932;9.478;2022-08-19T15:16:15;24.23;;;15.73;;
2992;SDS011;1506;48.932;9.478;2022-08-19T15:18:44;16.30;;;14.60;;
2992;SDS011;1506;48.932;9.478;2022-08-19T15:21:13;21.80;;;15.93;;
2992;SDS011;1506;48.932;9.478;2022-08-19T15:23:52;24.60;;;14.23;;
2992;SDS011;1506;48.932;9.478;2022-08-19T15:26:20;21.20;;;15.90;;